sensor_id;sensor_type;location;lat;lon;timestamp;P1;durP1;ratioP1;P2;durP2;ratioP2
32874;SDS011;40468;42.128;24.750;2023-03-23T00:01:00;28.05;;;14.60;;
32874;SDS011;40468;42.128;24.750;2023-03-23T00:02:32;30.40;;;14.80;;
32874;SDS011;40468;42.128;24.750;2023-03-23T00:04:05;25.27;;;14.85;;
32874;SDS011;40468;42.128;24.750;2023-03-23T00:05:38;27.60;;;14.73;;
32874;SDS011;40468;42.128;24.750;2023-03-23T00:07:11;26.50;;;13.90;;
32874;SDS011;40468;42.128;24.750;2023-03-23T00:08:52;28.65;;;15.18;;
32874;SDS011;40468;42.128;24.750;2023-03-23T00:10:29;28.55;;;15.05;;
32874;SDS011;40468;42.128;24.750;2023-03-23T00:12:03;25.50;;;13.73;;
32874;SDS011;40468;42.128;24.750;2023-03-23T00:13:35;31.00;;;15.18;;
32874;SDS011;40468;42.128;24.750;2023-03-23T00:15:08;28.87;;;15.23;;
32874;SDS011;40468;42.128;24.750;2023-03-23T00:16:43;24.42;;;13.88;;
32874;SDS011;40468;42.128;24.750;2023-03-23T00:18:16;30.10;;;14.90;;
32874;SDS011;40468;42.128;24.750;2023-03-23T00:19:52;27.13;;;14.25;;
32874;SDS011;40468;42.128;24.750;2023-03-23T00:21:25;29.15;;;14.00;;
32874;SDS011;40468;42.128;24.750;2023-03-23T00:23:03;31.40;;;15.00;;
32874;SDS011;40468;42.128;24.750;2023-03-23T00:24:35;25.05;;;13.50;;
32874;SDS011;40468;42.128;24.750;2023-03-23T00:26:08;29.30;;;14.20;;
32874;SDS011;40468;42.128;24.750;2023-03-23T00:27:40;27.50;;;14.63;;
32874;SDS011;40468;42.128;24.750;2023-03-23T00:29:12;29.13;;;14.23;;
32874;SDS011;40468;42.128;24.750;2023-03-23T00:30:45;23.55;;;14.07;;
32874;SDS011;40468;42.128;24.750;2023-03-23T00:32:17;34.13;;;14.90;;
32874;SDS011;40468;42.128;24.750;2023-03-23T00:35:23;30.73;;;13.60;;
32874;SDS011;40468;42.128;24.750;2023-03-23T00:36:57;27.50;;;14.35;;
32874;SDS011;40468;42.128;24.750;2023-03-23T00:38:30;28.65;;;15.23;;
32874;SDS011;40468;42.128;24.750;2023-03-23T00:40:03;28.98;;;15.20;;
32874;SDS011;40468;42.128;24.750;2023-03-23T00:41:40;31.48;;;16.70;;
32874;SDS011;40468;42.128;24.750;2023-03-23T00:43:12;27.58;;;14.73;;
32874;SDS011;40468;42.128;24.750;2023-03-23T00:44:45;29.02;;;15.07;;
32874;SDS011;40468;42.128;24.750;2023-03-23T00:46:17;30.55;;;15.45;;
32874;SDS011;40468;42.128;24.750;2023-03-23T00:47:50;26.77;;;14.80;;
32874;SDS011;40468;42.128;24.750;2023-03-23T00:49:24;34.30;;;15.27;;
32874;SDS011;40468;42.128;24.750;2023-03-23T00:50:57;27.83;;;15.68;;
32874;SDS011;40468;42.128;24.750;2023-03-23T00:52:29;32.58;;;15.93;;
32874;SDS011;40468;42.128;24.750;2023-03-23T00:54:00;31.90;;;15.68;;
32874;SDS011;40468;42.128;24.750;2023-03-23T00:55:33;30.48;;;15.10;;
32874;SDS011;40468;42.128;24.750;2023-03-23T00:57:04;31.05;;;16.05;;
32874;SDS011;40468;42.128;24.750;2023-03-23T00:58:36;37.30;;;16.95;;
32874;SDS011;40468;42.128;24.750;2023-03-23T01:00:09;28.80;;;15.68;;
32874;SDS011;40468;42.128;24.750;2023-03-23T01:01:42;31.60;;;15.85;;
32874;SDS011;40468;42.128;24.750;2023-03-23T01:03:14;29.58;;;15.90;;
32874;SDS011;40468;42.128;24.750;2023-03-23T01:04:49;32.05;;;15.88;;
32874;SDS011;40468;42.128;24.750;2023-03-23T01:06:22;31.38;;;15.88;;
32874;SDS011;40468;42.128;24.750;2023-03-23T01:07:54;29.95;;;15.00;;
32874;SDS011;40468;42.128;24.750;2023-03-23T01:09:26;29.92;;;15.63;;
32874;SDS011;40468;42.128;24.750;2023-03-23T01:11:01;31.90;;;16.55;;
32874;SDS011;40468;42.128;24.750;2023-03-23T01:12:33;31.65;;;15.85;;
32874;SDS011;40468;42.128;24.750;2023-03-23T01:14:06;29.52;;;15.55;;
32874;SDS011;40468;42.128;24.750;2023-03-23T01:15:38;39.25;;;15.75;;
32874;SDS011;40468;42.128;24.750;2023-03-23T01:17:10;33.20;;;16.42;;
32874;SDS011;40468;42.128;24.750;2023-03-23T01:18:42;30.15;;;15.82;;
32874;SDS011;40468;42.128;24.750;2023-03-23T01:20:14;31.27;;;16.52;;
32874;SDS011;40468;42.128;24.750;2023-03-23T01:21:47;35.92;;;15.32;;
32874;SDS011;40468;42.128;24.750;2023-03-23T01:23:19;29.48;;;16.08;;
32874;SDS011;40468;42.128;24.750;2023-03-23T01:24:50;29.83;;;15.68;;
32874;SDS011;40468;42.128;24.750;2023-03-23T01:26:23;26.80;;;15.43;;
32874;SDS011;40468;42.128;24.750;2023-03-23T01:27:56;29.25;;;16.25;;
32874;SDS011;40468;42.128;24.750;2023-03-23T01:29:29;28.08;;;15.70;;
32874;SDS011;40468;42.128;24.750;2023-03-23T01:31:01;29.88;;;16.00;;
32874;SDS011;40468;42.128;24.750;2023-03-23T01:32:34;32.80;;;14.48;;
32874;SDS011;40468;42.128;24.750;2023-03-23T01:34:06;27.73;;;15.68;;
32874;SDS011;40468;42.128;24.750;2023-03-23T01:35:42;32.95;;;15.85;;
32874;SDS011;40468;42.128;24.750;2023-03-23T01:37:12;29.87;;;16.30;;
32874;SDS011;40468;42.128;24.750;2023-03-23T01:38:46;32.78;;;16.67;;
32874;SDS011;40468;42.128;24.750;2023-03-23T01:40:18;32.77;;;17.00;;
32874;SDS011;40468;42.128;24.750;2023-03-23T01:41:51;35.15;;;17.00;;
32874;SDS011;40468;42.128;24.750;2023-03-23T01:43:22;33.75;;;17.20;;
32874;SDS011;40468;42.128;24.750;2023-03-23T01:46:56;32.05;;;17.10;;
32874;SDS011;40468;42.128;24.750;2023-03-23T01:48:29;38.38;;;18.92;;
32874;SDS011;40468;42.128;24.750;2023-03-23T01:50:04;35.45;;;17.85;;
32874;SDS011;40468;42.128;24.750;2023-03-23T01:51:37;32.47;;;17.70;;
32874;SDS011;40468;42.128;24.750;2023-03-23T01:53:12;34.28;;;17.98;;
32874;SDS011;40468;42.128;24.750;2023-03-23T01:54:43;38.50;;;17.58;;
32874;SDS011;40468;42.128;24.750;2023-03-23T01:56:18;33.00;;;18.40;;
32874;SDS011;40468;42.128;24.750;2023-03-23T01:57:55;34.05;;;17.95;;
32874;SDS011;40468;42.128;24.750;2023-03-23T01:59:28;33.90;;;18.95;;
32874;SDS011;40468;42.128;24.750;2023-03-23T02:02:34;34.67;;;18.08;;
32874;SDS011;40468;42.128;24.750;2023-03-23T02:04:09;32.20;;;17.08;;
32874;SDS011;40468;42.128;24.750;2023-03-23T02:05:41;33.20;;;18.10;;
32874;SDS011;40468;42.128;24.750;2023-03-23T02:07:15;32.17;;;17.23;;
32874;SDS011;40468;42.128;24.750;2023-03-23T02:08:51;30.92;;;16.35;;
32874;SDS011;40468;42.128;24.750;2023-03-23T02:10:23;35.67;;;17.25;;
32874;SDS011;40468;42.128;24.750;2023-03-23T02:11:54;33.13;;;17.38;;
32874;SDS011;40468;42.128;24.750;2023-03-23T02:13:26;34.88;;;16.98;;
32874;SDS011;40468;42.128;24.750;2023-03-23T02:14:59;29.92;;;16.20;;
32874;SDS011;40468;42.128;24.750;2023-03-23T02:18:11;35.22;;;16.33;;
32874;SDS011;40468;42.128;24.750;2023-03-23T02:20:07;35.60;;;16.70;;
32874;SDS011;40468;42.128;24.750;2023-03-23T02:26:19;30.42;;;15.77;;
32874;SDS011;40468;42.128;24.750;2023-03-23T02:28:19;34.65;;;16.67;;
32874;SDS011;40468;42.128;24.750;2023-03-23T02:30:17;30.42;;;15.18;;
32874;SDS011;40468;42.128;24.750;2023-03-23T02:32:10;33.08;;;16.48;;
32874;SDS011;40468;42.128;24.750;2023-03-23T02:33:50;35.05;;;17.13;;
32874;SDS011;40468;42.128;24.750;2023-03-23T02:35:28;30.63;;;15.95;;
32874;SDS011;40468;42.128;24.750;2023-03-23T02:37:02;32.88;;;16.98;;
32874;SDS011;40468;42.128;24.750;2023-03-23T02:38:40;32.08;;;17.25;;
32874;SDS011;40468;42.128;24.750;2023-03-23T02:40:21;37.28;;;18.58;;
32874;SDS011;40468;42.128;24.750;2023-03-23T02:41:58;32.60;;;18.67;;
32874;SDS011;40468;42.128;24.750;2023-03-23T02:43:36;32.65;;;17.30;;
32874;SDS011;40468;42.128;24.750;2023-03-23T02:45:11;31.50;;;16.67;;
32874;SDS011;40468;42.128;24.750;2023-03-23T02:46:45;34.30;;;17.92;;
32874;SDS011;40468;42.128;24.750;2023-03-23T02:48:20;34.88;;;17.85;;
32874;SDS011;40468;42.128;24.750;2023-03-23T02:49:57;36.10;;;17.88;;
32874;SDS011;40468;42.128;24.750;2023-03-23T02:51:30;34.85;;;18.27;;
32874;SDS011;40468;42.128;24.750;2023-03-23T02:53:05;36.50;;;18.02;;
32874;SDS011;40468;42.128;24.750;2023-03-23T02:54:41;36.53;;;18.55;;
32874;SDS011;40468;42.128;24.750;2023-03-23T02:57:46;35.03;;;17.23;;
32874;SDS011;40468;42.128;24.750;2023-03-23T02:59:18;36.20;;;18.15;;
32874;SDS011;40468;42.128;24.750;2023-03-23T03:00:51;36.63;;;17.88;;
32874;SDS011;40468;42.128;24.750;2023-03-23T03:02:23;42.40;;;19.27;;
32874;SDS011;40468;42.128;24.750;2023-03-23T03:03:59;40.20;;;18.13;;
32874;SDS011;40468;42.128;24.750;2023-03-23T03:05:37;41.13;;;19.77;;
32874;SDS011;40468;42.128;24.750;2023-03-23T03:09:09;42.63;;;20.08;;
32874;SDS011;40468;42.128;24.750;2023-03-23T03:10:47;51.58;;;22.73;;
32874;SDS011;40468;42.128;24.750;2023-03-23T03:12:27;45.58;;;20.48;;
32874;SDS011;40468;42.128;24.750;2023-03-23T03:14:06;46.72;;;20.35;;
32874;SDS011;40468;42.128;24.750;2023-03-23T03:15:48;48.10;;;19.50;;
32874;SDS011;40468;42.128;24.750;2023-03-23T03:17:26;44.42;;;19.10;;
32874;SDS011;40468;42.128;24.750;2023-03-23T03:19:03;42.15;;;18.70;;
32874;SDS011;40468;42.128;24.750;2023-03-23T03:20:43;39.88;;;18.50;;
32874;SDS011;40468;42.128;24.750;2023-03-23T03:22:18;36.00;;;18.63;;
32874;SDS011;40468;42.128;24.750;2023-03-23T03:23:52;37.58;;;17.75;;
32874;SDS011;40468;42.128;24.750;2023-03-23T03:25:29;35.05;;;18.45;;
32874;SDS011;40468;42.128;24.750;2023-03-23T03:27:01;39.50;;;19.15;;
32874;SDS011;40468;42.128;24.750;2023-03-23T03:28:36;36.45;;;17.73;;
32874;SDS011;40468;42.128;24.750;2023-03-23T03:30:09;35.03;;;17.17;;
32874;SDS011;40468;42.128;24.750;2023-03-23T03:31:44;36.92;;;17.77;;
32874;SDS011;40468;42.128;24.750;2023-03-23T03:33:19;34.33;;;16.58;;
32874;SDS011;40468;42.128;24.750;2023-03-23T03:34:55;30.15;;;16.50;;
32874;SDS011;40468;42.128;24.750;2023-03-23T03:36:29;34.42;;;17.48;;
32874;SDS011;40468;42.128;24.750;2023-03-23T03:38:05;31.98;;;15.85;;
32874;SDS011;40468;42.128;24.750;2023-03-23T03:39:38;36.13;;;17.30;;
32874;SDS011;40468;42.128;24.750;2023-03-23T03:41:10;33.25;;;16.55;;
32874;SDS011;40468;42.128;24.750;2023-03-23T03:42:43;33.92;;;16.40;;
32874;SDS011;40468;42.128;24.750;2023-03-23T03:45:48;34.30;;;15.85;;
32874;SDS011;40468;42.128;24.750;2023-03-23T03:47:20;34.75;;;16.48;;
32874;SDS011;40468;42.128;24.750;2023-03-23T03:48:51;37.20;;;17.45;;
32874;SDS011;40468;42.128;24.750;2023-03-23T03:50:24;34.20;;;17.15;;
32874;SDS011;40468;42.128;24.750;2023-03-23T03:51:57;42.03;;;17.20;;
32874;SDS011;40468;42.128;24.750;2023-03-23T03:53:28;37.15;;;18.17;;
32874;SDS011;40468;42.128;24.750;2023-03-23T03:55:01;32.60;;;16.58;;
32874;SDS011;40468;42.128;24.750;2023-03-23T03:56:33;39.83;;;18.45;;
32874;SDS011;40468;42.128;24.750;2023-03-23T03:58:08;37.40;;;18.25;;
32874;SDS011;40468;42.128;24.750;2023-03-23T03:59:40;37.13;;;17.55;;
32874;SDS011;40468;42.128;24.750;2023-03-23T04:01:11;39.72;;;18.30;;
32874;SDS011;40468;42.128;24.750;2023-03-23T04:02:44;43.33;;;19.60;;
32874;SDS011;40468;42.128;24.750;2023-03-23T04:04:18;39.33;;;17.75;;
32874;SDS011;40468;42.128;24.750;2023-03-23T04:05:50;33.78;;;16.73;;
32874;SDS011;40468;42.128;24.750;2023-03-23T04:07:24;33.13;;;16.10;;
32874;SDS011;40468;42.128;24.750;2023-03-23T04:08:59;32.33;;;16.23;;
32874;SDS011;40468;42.128;24.750;2023-03-23T04:10:31;33.00;;;16.60;;
32874;SDS011;40468;42.128;24.750;2023-03-23T04:12:04;35.65;;;16.60;;
32874;SDS011;40468;42.128;24.750;2023-03-23T04:13:36;27.85;;;14.70;;
32874;SDS011;40468;42.128;24.750;2023-03-23T04:15:09;34.15;;;15.98;;
32874;SDS011;40468;42.128;24.750;2023-03-23T04:16:42;31.02;;;15.88;;
32874;SDS011;40468;42.128;24.750;2023-03-23T04:18:14;34.92;;;16.10;;
32874;SDS011;40468;42.128;24.750;2023-03-23T04:19:47;33.90;;;16.60;;
32874;SDS011;40468;42.128;24.750;2023-03-23T04:21:19;32.65;;;17.17;;
32874;SDS011;40468;42.128;24.750;2023-03-23T04:22:52;40.17;;;17.90;;
32874;SDS011;40468;42.128;24.750;2023-03-23T04:24:25;33.63;;;16.67;;
32874;SDS011;40468;42.128;24.750;2023-03-23T04:25:58;33.97;;;15.88;;
32874;SDS011;40468;42.128;24.750;2023-03-23T04:27:30;36.88;;;17.50;;
32874;SDS011;40468;42.128;24.750;2023-03-23T04:29:01;31.05;;;16.60;;
32874;SDS011;40468;42.128;24.750;2023-03-23T04:30:33;31.67;;;16.33;;
32874;SDS011;40468;42.128;24.750;2023-03-23T04:32:05;35.47;;;16.92;;
32874;SDS011;40468;42.128;24.750;2023-03-23T04:33:37;35.22;;;16.40;;
32874;SDS011;40468;42.128;24.750;2023-03-23T04:35:11;32.45;;;16.10;;
32874;SDS011;40468;42.128;24.750;2023-03-23T04:36:44;36.70;;;16.92;;
32874;SDS011;40468;42.128;24.750;2023-03-23T04:38:17;35.45;;;16.73;;
32874;SDS011;40468;42.128;24.750;2023-03-23T04:39:51;30.48;;;16.10;;
32874;SDS011;40468;42.128;24.750;2023-03-23T04:41:30;31.00;;;15.88;;
32874;SDS011;40468;42.128;24.750;2023-03-23T04:43:02;35.88;;;16.42;;
32874;SDS011;40468;42.128;24.750;2023-03-23T04:44:35;36.17;;;16.67;;
32874;SDS011;40468;42.128;24.750;2023-03-23T04:46:07;34.08;;;16.75;;
32874;SDS011;40468;42.128;24.750;2023-03-23T04:47:38;34.58;;;16.73;;
32874;SDS011;40468;42.128;24.750;2023-03-23T04:49:11;33.13;;;16.88;;
32874;SDS011;40468;42.128;24.750;2023-03-23T04:50:45;38.05;;;17.60;;
32874;SDS011;40468;42.128;24.750;2023-03-23T04:52:18;36.42;;;17.95;;
32874;SDS011;40468;42.128;24.750;2023-03-23T04:53:52;41.33;;;18.95;;
32874;SDS011;40468;42.128;24.750;2023-03-23T04:55:25;37.55;;;18.25;;
32874;SDS011;40468;42.128;24.750;2023-03-23T04:56:57;35.33;;;18.77;;
32874;SDS011;40468;42.128;24.750;2023-03-23T04:58:29;36.80;;;18.50;;
32874;SDS011;40468;42.128;24.750;2023-03-23T05:00:04;34.05;;;18.33;;
32874;SDS011;40468;42.128;24.750;2023-03-23T05:01:39;32.90;;;16.42;;
32874;SDS011;40468;42.128;24.750;2023-03-23T05:03:15;35.10;;;17.48;;
32874;SDS011;40468;42.128;24.750;2023-03-23T05:04:47;35.42;;;17.00;;
32874;SDS011;40468;42.128;24.750;2023-03-23T05:06:21;38.03;;;16.58;;
32874;SDS011;40468;42.128;24.750;2023-03-23T05:07:53;31.58;;;16.83;;
32874;SDS011;40468;42.128;24.750;2023-03-23T05:11:17;33.17;;;15.23;;
32874;SDS011;40468;42.128;24.750;2023-03-23T05:12:49;31.58;;;15.90;;
32874;SDS011;40468;42.128;24.750;2023-03-23T05:14:21;34.47;;;16.95;;
32874;SDS011;40468;42.128;24.750;2023-03-23T05:15:53;36.88;;;16.38;;
32874;SDS011;40468;42.128;24.750;2023-03-23T05:17:25;36.03;;;17.75;;
32874;SDS011;40468;42.128;24.750;2023-03-23T05:18:57;34.42;;;16.70;;
32874;SDS011;40468;42.128;24.750;2023-03-23T05:20:29;133.75;;;70.75;;
32874;SDS011;40468;42.128;24.750;2023-03-23T05:22:02;91.13;;;46.97;;
32874;SDS011;40468;42.128;24.750;2023-03-23T05:23:34;98.07;;;54.97;;
32874;SDS011;40468;42.128;24.750;2023-03-23T05:25:08;40.80;;;21.17;;
32874;SDS011;40468;42.128;24.750;2023-03-23T05:26:40;36.83;;;19.00;;
32874;SDS011;40468;42.128;24.750;2023-03-23T05:28:12;30.67;;;17.00;;
32874;SDS011;40468;42.128;24.750;2023-03-23T05:29:44;40.85;;;18.15;;
32874;SDS011;40468;42.128;24.750;2023-03-23T05:31:18;34.10;;;17.95;;
32874;SDS011;40468;42.128;24.750;2023-03-23T05:32:51;34.28;;;16.48;;
32874;SDS011;40468;42.128;24.750;2023-03-23T05:34:23;29.00;;;15.85;;
32874;SDS011;40468;42.128;24.750;2023-03-23T05:35:56;31.15;;;16.83;;
32874;SDS011;40468;42.128;24.750;2023-03-23T05:37:28;33.97;;;17.83;;
32874;SDS011;40468;42.128;24.750;2023-03-23T05:39:02;29.80;;;15.82;;
32874;SDS011;40468;42.128;24.750;2023-03-23T05:40:36;34.50;;;17.50;;
32874;SDS011;40468;42.128;24.750;2023-03-23T05:42:07;33.65;;;16.70;;
32874;SDS011;40468;42.128;24.750;2023-03-23T05:43:39;32.55;;;16.40;;
32874;SDS011;40468;42.128;24.750;2023-03-23T05:45:12;32.20;;;16.63;;
32874;SDS011;40468;42.128;24.750;2023-03-23T05:46:44;37.08;;;16.17;;
32874;SDS011;40468;42.128;24.750;2023-03-23T05:48:15;35.33;;;17.13;;
32874;SDS011;40468;42.128;24.750;2023-03-23T05:49:46;41.80;;;18.35;;
32874;SDS011;40468;42.128;24.750;2023-03-23T05:51:18;37.67;;;17.38;;
32874;SDS011;40468;42.128;24.750;2023-03-23T05:52:50;32.75;;;17.63;;
32874;SDS011;40468;42.128;24.750;2023-03-23T05:54:22;36.25;;;18.20;;
32874;SDS011;40468;42.128;24.750;2023-03-23T05:55:58;34.45;;;18.73;;
32874;SDS011;40468;42.128;24.750;2023-03-23T05:57:31;31.02;;;18.10;;
32874;SDS011;40468;42.128;24.750;2023-03-23T05:59:03;35.28;;;16.52;;
32874;SDS011;40468;42.128;24.750;2023-03-23T06:00:35;35.95;;;17.35;;
32874;SDS011;40468;42.128;24.750;2023-03-23T06:02:07;34.22;;;17.98;;
32874;SDS011;40468;42.128;24.750;2023-03-23T06:03:38;47.95;;;23.38;;
32874;SDS011;40468;42.128;24.750;2023-03-23T06:05:10;75.95;;;36.53;;
32874;SDS011;40468;42.128;24.750;2023-03-23T06:06:42;54.33;;;27.80;;
32874;SDS011;40468;42.128;24.750;2023-03-23T06:08:15;41.38;;;21.88;;
32874;SDS011;40468;42.128;24.750;2023-03-23T06:09:47;39.70;;;20.60;;
32874;SDS011;40468;42.128;24.750;2023-03-23T06:11:22;35.35;;;19.48;;
32874;SDS011;40468;42.128;24.750;2023-03-23T06:12:54;35.75;;;17.27;;
32874;SDS011;40468;42.128;24.750;2023-03-23T06:14:26;36.78;;;17.52;;
32874;SDS011;40468;42.128;24.750;2023-03-23T06:15:58;35.70;;;16.60;;
32874;SDS011;40468;42.128;24.750;2023-03-23T06:17:30;38.10;;;17.33;;
32874;SDS011;40468;42.128;24.750;2023-03-23T06:19:02;35.38;;;17.55;;
32874;SDS011;40468;42.128;24.750;2023-03-23T06:20:34;40.28;;;16.65;;
32874;SDS011;40468;42.128;24.750;2023-03-23T06:22:08;33.35;;;16.90;;
32874;SDS011;40468;42.128;24.750;2023-03-23T06:23:40;33.15;;;17.35;;
32874;SDS011;40468;42.128;24.750;2023-03-23T06:25:13;31.63;;;17.17;;
32874;SDS011;40468;42.128;24.750;2023-03-23T06:26:47;34.40;;;16.58;;
32874;SDS011;40468;42.128;24.750;2023-03-23T06:28:20;27.95;;;15.20;;
32874;SDS011;40468;42.128;24.750;2023-03-23T06:29:52;31.05;;;15.80;;
32874;SDS011;40468;42.128;24.750;2023-03-23T06:31:26;35.33;;;17.15;;
32874;SDS011;40468;42.128;24.750;2023-03-23T06:32:58;31.55;;;15.88;;
32874;SDS011;40468;42.128;24.750;2023-03-23T06:34:30;33.72;;;16.92;;
32874;SDS011;40468;42.128;24.750;2023-03-23T06:36:03;30.10;;;14.30;;
32874;SDS011;40468;42.128;24.750;2023-03-23T06:37:36;95.25;;;52.33;;
32874;SDS011;40468;42.128;24.750;2023-03-23T06:39:08;158.30;;;79.32;;
32874;SDS011;40468;42.128;24.750;2023-03-23T06:40:41;264.60;;;128.95;;
32874;SDS011;40468;42.128;24.750;2023-03-23T06:42:18;230.57;;;105.30;;
32874;SDS011;40468;42.128;24.750;2023-03-23T06:43:50;105.70;;;56.40;;
32874;SDS011;40468;42.128;24.750;2023-03-23T06:45:23;135.63;;;74.43;;
32874;SDS011;40468;42.128;24.750;2023-03-23T06:46:56;148.75;;;82.72;;
32874;SDS011;40468;42.128;24.750;2023-03-23T06:48:28;59.25;;;32.58;;
32874;SDS011;40468;42.128;24.750;2023-03-23T06:50:00;39.90;;;21.10;;
32874;SDS011;40468;42.128;24.750;2023-03-23T06:51:32;35.60;;;17.80;;
32874;SDS011;40468;42.128;24.750;2023-03-23T06:53:03;33.30;;;18.63;;
32874;SDS011;40468;42.128;24.750;2023-03-23T06:54:35;40.75;;;18.17;;
32874;SDS011;40468;42.128;24.750;2023-03-23T06:56:06;45.85;;;16.77;;
32874;SDS011;40468;42.128;24.750;2023-03-23T06:57:40;40.70;;;17.77;;
32874;SDS011;40468;42.128;24.750;2023-03-23T07:00:44;37.03;;;17.85;;
32874;SDS011;40468;42.128;24.750;2023-03-23T07:02:16;34.95;;;18.92;;
32874;SDS011;40468;42.128;24.750;2023-03-23T07:03:48;37.55;;;17.73;;
32874;SDS011;40468;42.128;24.750;2023-03-23T07:05:19;252.80;;;28.70;;
32874;SDS011;40468;42.128;24.750;2023-03-23T07:06:51;643.58;;;58.83;;
32874;SDS011;40468;42.128;24.750;2023-03-23T07:08:23;407.63;;;39.53;;
32874;SDS011;40468;42.128;24.750;2023-03-23T07:09:55;49.58;;;16.98;;
32874;SDS011;40468;42.128;24.750;2023-03-23T07:11:28;38.80;;;17.85;;
32874;SDS011;40468;42.128;24.750;2023-03-23T07:13:01;40.65;;;17.60;;
32874;SDS011;40468;42.128;24.750;2023-03-23T07:14:33;37.47;;;18.33;;
32874;SDS011;40468;42.128;24.750;2023-03-23T07:16:05;35.83;;;18.70;;
32874;SDS011;40468;42.128;24.750;2023-03-23T07:17:38;35.78;;;18.35;;
32874;SDS011;40468;42.128;24.750;2023-03-23T07:19:11;39.15;;;19.08;;
32874;SDS011;40468;42.128;24.750;2023-03-23T07:20:43;37.80;;;17.27;;
32874;SDS011;40468;42.128;24.750;2023-03-23T07:22:17;41.58;;;18.00;;
32874;SDS011;40468;42.128;24.750;2023-03-23T07:23:49;40.60;;;19.33;;
32874;SDS011;40468;42.128;24.750;2023-03-23T07:25:21;38.53;;;19.38;;
32874;SDS011;40468;42.128;24.750;2023-03-23T07:26:53;44.05;;;18.92;;
32874;SDS011;40468;42.128;24.750;2023-03-23T07:28:27;35.42;;;20.13;;
32874;SDS011;40468;42.128;24.750;2023-03-23T07:29:59;43.65;;;18.92;;
32874;SDS011;40468;42.128;24.750;2023-03-23T07:31:31;42.95;;;20.65;;
32874;SDS011;40468;42.128;24.750;2023-03-23T07:33:04;35.10;;;17.95;;
32874;SDS011;40468;42.128;24.750;2023-03-23T07:34:35;36.85;;;18.48;;
32874;SDS011;40468;42.128;24.750;2023-03-23T07:36:07;41.03;;;19.63;;
32874;SDS011;40468;42.128;24.750;2023-03-23T07:37:40;37.70;;;18.90;;
32874;SDS011;40468;42.128;24.750;2023-03-23T07:39:12;38.60;;;19.27;;
32874;SDS011;40468;42.128;24.750;2023-03-23T07:40:45;41.40;;;19.13;;
32874;SDS011;40468;42.128;24.750;2023-03-23T07:42:17;45.97;;;19.97;;
32874;SDS011;40468;42.128;24.750;2023-03-23T07:43:51;39.78;;;18.58;;
32874;SDS011;40468;42.128;24.750;2023-03-23T07:45:22;43.58;;;19.73;;
32874;SDS011;40468;42.128;24.750;2023-03-23T07:46:54;44.42;;;19.02;;
32874;SDS011;40468;42.128;24.750;2023-03-23T07:48:26;40.58;;;19.75;;
32874;SDS011;40468;42.128;24.750;2023-03-23T07:49:58;35.35;;;17.08;;
32874;SDS011;40468;42.128;24.750;2023-03-23T07:51:31;36.95;;;18.75;;
32874;SDS011;40468;42.128;24.750;2023-03-23T07:53:03;33.47;;;18.10;;
32874;SDS011;40468;42.128;24.750;2023-03-23T07:54:36;37.03;;;17.35;;
32874;SDS011;40468;42.128;24.750;2023-03-23T07:56:08;36.78;;;17.55;;
32874;SDS011;40468;42.128;24.750;2023-03-23T07:57:40;41.35;;;18.10;;
32874;SDS011;40468;42.128;24.750;2023-03-23T07:59:15;35.03;;;18.17;;
32874;SDS011;40468;42.128;24.750;2023-03-23T08:00:47;35.85;;;16.67;;
32874;SDS011;40468;42.128;24.750;2023-03-23T08:02:20;33.75;;;15.93;;
32874;SDS011;40468;42.128;24.750;2023-03-23T08:03:51;28.98;;;16.02;;
32874;SDS011;40468;42.128;24.750;2023-03-23T08:05:24;36.47;;;17.67;;
32874;SDS011;40468;42.128;24.750;2023-03-23T08:06:57;39.88;;;18.45;;
32874;SDS011;40468;42.128;24.750;2023-03-23T08:08:29;39.13;;;18.50;;
32874;SDS011;40468;42.128;24.750;2023-03-23T08:10:01;40.90;;;18.90;;
32874;SDS011;40468;42.128;24.750;2023-03-23T08:11:33;40.40;;;18.83;;
32874;SDS011;40468;42.128;24.750;2023-03-23T08:13:05;41.28;;;19.27;;
32874;SDS011;40468;42.128;24.750;2023-03-23T08:14:41;31.80;;;17.48;;
32874;SDS011;40468;42.128;24.750;2023-03-23T08:18:29;40.13;;;19.02;;
32874;SDS011;40468;42.128;24.750;2023-03-23T08:20:02;29.23;;;16.75;;
32874;SDS011;40468;42.128;24.750;2023-03-23T08:21:41;34.65;;;17.63;;
32874;SDS011;40468;42.128;24.750;2023-03-23T08:23:13;28.42;;;16.98;;
32874;SDS011;40468;42.128;24.750;2023-03-23T08:24:46;27.20;;;15.18;;
32874;SDS011;40468;42.128;24.750;2023-03-23T08:26:18;31.40;;;13.83;;
32874;SDS011;40468;42.128;24.750;2023-03-23T08:27:51;30.40;;;15.27;;
32874;SDS011;40468;42.128;24.750;2023-03-23T08:29:23;31.25;;;14.00;;
32874;SDS011;40468;42.128;24.750;2023-03-23T08:30:56;30.25;;;15.45;;
32874;SDS011;40468;42.128;24.750;2023-03-23T08:32:28;26.23;;;13.77;;
32874;SDS011;40468;42.128;24.750;2023-03-23T08:34:00;26.75;;;14.68;;
32874;SDS011;40468;42.128;24.750;2023-03-23T08:35:32;22.33;;;12.65;;
32874;SDS011;40468;42.128;24.750;2023-03-23T08:37:04;28.35;;;12.45;;
32874;SDS011;40468;42.128;24.750;2023-03-23T08:38:36;26.15;;;13.45;;
32874;SDS011;40468;42.128;24.750;2023-03-23T08:40:09;29.02;;;15.35;;
32874;SDS011;40468;42.128;24.750;2023-03-23T08:41:44;31.48;;;17.10;;
32874;SDS011;40468;42.128;24.750;2023-03-23T08:43:16;31.70;;;15.67;;
32874;SDS011;40468;42.128;24.750;2023-03-23T08:44:48;29.77;;;15.10;;
32874;SDS011;40468;42.128;24.750;2023-03-23T08:46:22;28.23;;;14.82;;
32874;SDS011;40468;42.128;24.750;2023-03-23T08:49:26;28.55;;;14.13;;
32874;SDS011;40468;42.128;24.750;2023-03-23T08:50:58;24.88;;;13.25;;
32874;SDS011;40468;42.128;24.750;2023-03-23T08:52:31;24.83;;;11.55;;
32874;SDS011;40468;42.128;24.750;2023-03-23T08:54:03;17.73;;;9.90;;
32874;SDS011;40468;42.128;24.750;2023-03-23T08:55:36;17.02;;;11.15;;
32874;SDS011;40468;42.128;24.750;2023-03-23T08:57:08;18.30;;;10.57;;
32874;SDS011;40468;42.128;24.750;2023-03-23T08:58:40;27.73;;;14.93;;
32874;SDS011;40468;42.128;24.750;2023-03-23T09:00:13;34.50;;;16.08;;
32874;SDS011;40468;42.128;24.750;2023-03-23T09:01:49;33.80;;;16.63;;
32874;SDS011;40468;42.128;24.750;2023-03-23T09:04:53;35.28;;;16.75;;
32874;SDS011;40468;42.128;24.750;2023-03-23T09:06:25;33.10;;;16.58;;
32874;SDS011;40468;42.128;24.750;2023-03-23T09:07:57;32.78;;;17.02;;
32874;SDS011;40468;42.128;24.750;2023-03-23T09:09:29;34.90;;;21.25;;
32874;SDS011;40468;42.128;24.750;2023-03-23T09:11:04;26.50;;;16.25;;
32874;SDS011;40468;42.128;24.750;2023-03-23T09:12:37;25.27;;;14.88;;
32874;SDS011;40468;42.128;24.750;2023-03-23T09:14:10;26.20;;;15.38;;
32874;SDS011;40468;42.128;24.750;2023-03-23T09:15:42;30.98;;;15.63;;
32874;SDS011;40468;42.128;24.750;2023-03-23T09:17:15;22.20;;;13.90;;
32874;SDS011;40468;42.128;24.750;2023-03-23T09:20:21;28.02;;;14.00;;
32874;SDS011;40468;42.128;24.750;2023-03-23T09:21:55;27.02;;;14.73;;
32874;SDS011;40468;42.128;24.750;2023-03-23T09:23:27;27.25;;;13.63;;
32874;SDS011;40468;42.128;24.750;2023-03-23T09:25:00;21.90;;;12.98;;